Startpagina
METAR-TAF:

METAR-TAF

Vliegvelden :

Paya Lebar Air Base

Singapore, Singapore

breedte: 01-22N, lengte: 103-55E, hoogte: 18 m

Actueel weer

Dit bericht is 41 minuten geleden gemaakt, om 09:00 UTC
Wind 3 kt uit het noordoosten
Temperatuur 29°C
Vochtigheid 70%
Druk 1007 hPa
Zicht 10 km of meer
Weinig wolken op 1800 ft
Gebroken wolken op 17000 ft

METAR: WSAP 230900Z 04003KT 9999 FEW018 BKN170 29/23 Q1007

Tijdstip: 17:41 (09:41 UTC)

Verwachting

Dit bericht is 1 uur en het 41 minuten geleden gemaakt, om 08:00 UTC
Verwachting geldig van 23 om 08 UTC tot 24 om 12 UTC
Wind 9 kt uit het zuiden
Zicht 10 km of meer
Weinig wolken op 1500 ft
Verspreide wolken op 2000 ft
Kans 30% :
Tijdelijke
van 24 om 05 UTC tot 24 om 09 UTC
Zicht: 3000 m
Weinig wolken op 1200 ft, Cumulonimbus.
Gebroken wolken op 1500 ft
onweer, regen

TAF: WSAP 230800Z 2308/2412 17009KT 9999 FEW015 SCT020 PROB30 TEMPO 2405/2409 3000 TSRA FEW012CB BKN015

Waarnemingen en weersverwachtingen van meer dan 4000 vliegvelden (METAR en TAF).

De beschikbare stations zijn de gele en rode punten op de kaart.

Ga met uw muis naar het station om de naam te zien.

Klik dan om waarnemingen en weersverwachtingen te zien.

kaart wijzigen: klik op de groene knoppen met een zwart kruis om in te zoomen, op de groene knop met een streepje om uit te zoomen of op de groene pijlen voor aangrenzende kaarten.


METAR-TAF: